Pagrindinis puslapis
METAR-TAF:

METAR-TAF

Oro uostai :

Patna, Indija

platuma: 25-36N, ilguma: 085-06E, Aukštis: 51 m

Dabartinis oras

Ataskaita buvo paskelbta 59 minutes, ne 19:00 UTC
Vėjas 5 kt iš Rytų
Temperatūra 28°C
Drėgmė 79%
Slėgis 996 hPa
Matomumas: 3500 m
Išsisklaidę debesys ne aukštis 1800 ft
Išsisklaidę debesys ne aukštis 10000 ft
rūkana

METAR: VEPT 141900Z 09005KT 3500 BR SCT018 SCT100 28/24 Q0996 NOSIG

Laikas: 01:29 (19:59 UTC)

Prognozė

Ataskaita buvo paskelbta 2 valandos ir 59 minutes, ne 17:00 UTC
Prognozė galioja nuo 14 metu 18 UTC su 15 metu 03 UTC
Vėjas 5 kt iš Rytų
Matomumas: 3000 m
Mažai debesys ne aukštis 1800 ft
Išsisklaidę debesys ne aukštis 10000 ft
rūkana
Tapsmas
nuo 14 metu 21 UTC su 14 metu 23 UTC
Matomumas: 2500 m
rūkana

TAF: VEPT 141700Z 1418/1503 09005KT 3000 BR FEW018 SCT100 BECMG 1421/1423 2500 BR

Orai ataskaitas ir orų prognozės (METAR, TAF).

turimą stotys yra geltonos ir raudonos taškus žemėlapyje.

Perkelti pele per norėdami pamatyti stoties vardą.

Tada spustelėkite, norėdami matyti oro stebėjimo ir prognozės.

Norėdami pakeisti žemėlapį: spustelėkite ant žalios mygtukų su juodo kryžiaus žemyn,; žalią mygtuką su brūkšneliu, jei norite nutolinti; arba žalių rodyklių gretimoms žemėlapius.


METAR-TAF: